Terminal Aerodrome Forecast
Issued by NWS

Home | Current Version | Previous Version | Text Only | Print | Product List | Glossary On
Versions: 1 2 3 4 5 6 7 8 9 10 11 12 13 14 15 16 17 18 19 20 21 22 23 24 25
000
FTUS42 KJAX 062353 AAA
TAFVQQ
TAF AMD
KVQQ 062353Z 0700/0724 VRB10G20KT 2SM -TSRA BR BKN003 OVC020CB
     FM070100 19003KT P6SM VCSH SCT030 BKN090 OVC250
     FM070500 00000KT P6SM SCT250
     FM071500 28005KT P6SM FEW035 SCT250
     FM072200 16008KT P6SM VCTS SCT050CB BKN250=

USA.gov is the U.S. government's official web portal to all federal, state and local government web resources and services.